Time;durP1;ratioP1;P1;durP2;ratioP2;P2;SDS_P1;SDS_P2;PMS_P1;PMS_P2;Temp;Humidity;BMP_temperature;BMP_pressure;BME280_temperature;BME280_humidity;BME280_pressure;Samples;Min_cycle;Max_cycle;Signal;HPM_P1;HPM_P2
2020/12/17 00:02:05;;;;;;;5.87;4.90;;;10.10;99.90;;;;;;5016169;28;20600;-78
2020/12/17 00:04:31;;;;;;;4.90;3.97;;;10.20;99.90;;;;;;5016435;28;20187;-78
2020/12/17 00:06:56;;;;;;;5.40;4.17;;;10.10;99.90;;;;;;5016272;28;20174;-78
2020/12/17 00:09:22;;;;;;;5.40;4.53;;;10.20;99.90;;;;;;5016461;28;20535;-78
2020/12/17 00:11:48;;;;;;;7.73;4.90;;;10.20;99.90;;;;;;5016492;28;20655;-76
2020/12/17 00:14:15;;;;;;;5.45;4.82;;;10.20;99.90;;;;;;5016054;28;20461;-76
2020/12/17 00:16:41;;;;;;;6.80;4.90;;;10.10;99.90;;;;;;5016240;28;20175;-76
2020/12/17 00:19:08;;;;;;;8.63;6.00;;;10.10;99.90;;;;;;5016117;28;20525;-75
2020/12/17 00:21:35;;;;;;;5.78;4.75;;;10.00;99.90;;;;;;5016236;28;20190;-78
2020/12/17 00:24:00;;;;;;;7.38;5.65;;;10.10;99.90;;;;;;5015949;28;20194;-79
2020/12/17 00:26:26;;;;;;;6.20;4.97;;;10.10;99.90;;;;;;5014718;28;20606;-75
2020/12/17 00:28:55;;;;;;;7.37;5.27;;;10.10;99.90;;;;;;5016028;28;20420;-78
2020/12/17 00:31:21;;;;;;;7.43;5.80;;;10.10;99.90;;;;;;5015951;28;20203;-78
2020/12/17 00:33:48;;;;;;;5.55;5.05;;;10.10;99.90;;;;;;5015803;28;20277;-79
2020/12/17 00:36:17;;;;;;;8.38;4.35;;;10.00;99.90;;;;;;5016055;28;20179;-75
2020/12/17 00:38:44;;;;;;;7.80;5.07;;;10.00;99.90;;;;;;5015850;28;20449;-80
2020/12/17 00:41:12;;;;;;;5.88;5.18;;;10.00;99.90;;;;;;5015631;28;20685;-79
2020/12/17 00:43:37;;;;;;;7.82;5.45;;;9.90;99.90;;;;;;5015526;28;20258;-77
2020/12/17 00:46:03;;;;;;;7.13;5.07;;;10.00;99.90;;;;;;5015860;28;20587;-76
2020/12/17 00:48:29;;;;;;;5.93;4.60;;;10.00;99.90;;;;;;5015642;28;20189;-80
2020/12/17 00:50:54;;;;;;;6.03;4.13;;;9.90;99.90;;;;;;5015512;28;20265;-75
2020/12/17 00:53:20;;;;;;;5.40;4.50;;;9.90;99.90;;;;;;5015091;28;20213;-75
2020/12/17 00:55:45;;;;;;;5.40;4.40;;;10.00;99.90;;;;;;5015468;28;20179;-79
2020/12/17 00:58:11;;;;;;;7.67;4.00;;;10.00;99.90;;;;;;5015528;28;20545;-76
2020/12/17 01:00:36;;;;;;;5.87;4.83;;;10.00;99.90;;;;;;5015397;28;20195;-78
2020/12/17 01:03:02;;;;;;;7.63;4.87;;;10.00;99.90;;;;;;5015071;28;20237;-78
2020/12/17 01:05:27;;;;;;;6.10;5.23;;;10.00;99.90;;;;;;5013969;28;20182;-80
2020/12/17 01:07:53;;;;;;;5.70;4.53;;;10.00;99.90;;;;;;5015441;28;20182;-76
2020/12/17 01:10:19;;;;;;;5.80;4.27;;;9.90;99.90;;;;;;5015685;28;20545;-77
2020/12/17 01:12:44;;;;;;;5.37;4.60;;;10.00;99.90;;;;;;5014964;28;20280;-76
2020/12/17 01:15:10;;;;;;;5.73;4.50;;;10.00;99.90;;;;;;5013716;28;20301;-77
2020/12/17 01:17:36;;;;;;;9.40;4.90;;;10.10;99.90;;;;;;5015031;28;20564;-79
2020/12/17 01:20:01;;;;;;;6.53;4.80;;;10.00;99.90;;;;;;5015044;28;20182;-78
2020/12/17 01:22:28;;;;;;;5.80;4.77;;;10.10;99.90;;;;;;5014864;28;20206;-78
2020/12/17 01:24:54;;;;;;;6.93;5.00;;;10.10;99.90;;;;;;5015121;28;20479;-77
2020/12/17 01:27:19;;;;;;;7.50;4.57;;;10.00;99.90;;;;;;5014899;28;20212;-76
2020/12/17 01:29:45;;;;;;;5.90;4.50;;;10.00;99.90;;;;;;5014954;28;20178;-75
2020/12/17 01:32:10;;;;;;;6.80;4.30;;;10.00;99.90;;;;;;5014508;28;20724;-77
2020/12/17 01:34:36;;;;;;;6.40;4.53;;;10.10;99.90;;;;;;5014613;28;20199;-80
2020/12/17 01:37:01;;;;;;;12.60;5.40;;;10.00;99.90;;;;;;5014943;28;20194;-79
2020/12/17 01:39:27;;;;;;;7.63;5.90;;;10.00;99.90;;;;;;5014641;28;20632;-78
2020/12/17 01:41:54;;;;;;;8.83;5.40;;;10.10;99.90;;;;;;5014185;28;20198;-76
2020/12/17 01:44:19;;;;;;;11.18;5.88;;;10.00;99.90;;;;;;5014700;28;20178;-76
2020/12/17 01:46:45;;;;;;;6.67;5.90;;;10.10;99.90;;;;;;5014585;28;20182;-76
2020/12/17 01:49:13;;;;;;;10.03;5.43;;;10.00;99.90;;;;;;5014457;28;20201;-76
2020/12/17 01:51:39;;;;;;;9.43;5.72;;;10.00;99.90;;;;;;5014223;28;20195;-79
2020/12/17 01:54:05;;;;;;;6.83;5.60;;;10.00;99.90;;;;;;5012909;28;20300;-77
2020/12/17 01:56:34;;;;;;;7.60;5.70;;;10.10;99.90;;;;;;5014390;28;20178;-78
2020/12/17 01:59:11;;;;;;;5.88;4.90;;;10.00;99.90;;;;;;5014419;28;20190;-78
2020/12/17 02:01:43;;;;;;;9.77;5.90;;;10.10;99.90;;;;;;5014035;28;20197;-76
2020/12/17 02:04:09;;;;;;;9.25;5.45;;;10.10;99.90;;;;;;5014129;28;20190;-78
2020/12/17 02:06:35;;;;;;;8.35;5.57;;;10.10;99.90;;;;;;5014243;28;20186;-77
2020/12/17 02:09:02;;;;;;;8.00;4.87;;;10.30;99.90;;;;;;5013640;28;20179;-78
2020/12/17 02:11:28;;;;;;;6.72;5.70;;;10.30;99.90;;;;;;5012804;28;20449;-79
2020/12/17 02:13:54;;;;;;;8.33;5.70;;;10.20;99.90;;;;;;5013760;28;20214;-78
2020/12/17 02:16:20;;;;;;;6.53;5.80;;;10.20;99.90;;;;;;5012841;28;20237;-76
2020/12/17 02:18:45;;;;;;;8.07;5.88;;;10.20;99.90;;;;;;5014037;28;20224;-78
2020/12/17 02:21:13;;;;;;;11.10;6.40;;;10.10;99.90;;;;;;5013986;28;20194;-78
2020/12/17 02:23:39;;;;;;;6.00;5.38;;;10.10;99.90;;;;;;5013543;28;20179;-76
2020/12/17 02:26:06;;;;;;;8.48;6.32;;;10.00;99.90;;;;;;5013938;28;20533;-78
2020/12/17 02:28:32;;;;;;;6.35;5.72;;;10.10;99.90;;;;;;5014167;28;20258;-77
2020/12/17 02:30:58;;;;;;;6.40;5.43;;;10.10;99.90;;;;;;5013732;28;20206;-78
2020/12/17 02:33:23;;;;;;;9.27;5.80;;;10.20;99.90;;;;;;5013442;28;20228;-79
2020/12/17 02:35:49;;;;;;;8.30;5.70;;;10.20;99.90;;;;;;5013881;28;20174;-79
2020/12/17 02:38:15;;;;;;;6.23;5.63;;;10.20;99.90;;;;;;5013702;28;20186;-77
2020/12/17 02:40:40;;;;;;;8.40;5.43;;;10.10;99.90;;;;;;5013779;28;20218;-77
2020/12/17 02:43:10;;;;;;;9.83;5.70;;;10.00;99.90;;;;;;5013413;28;20538;-79
2020/12/17 02:45:35;;;;;;;8.15;5.63;;;10.00;99.90;;;;;;5013671;28;20174;-79
2020/12/17 02:48:01;;;;;;;7.03;5.57;;;10.00;99.90;;;;;;5013446;28;20179;-78
2020/12/17 02:50:26;;;;;;;8.67;6.37;;;10.00;99.90;;;;;;5013556;28;20294;-76
2020/12/17 02:52:52;;;;;;;7.00;5.67;;;10.00;99.90;;;;;;5013323;28;20167;-75
2020/12/17 02:55:18;;;;;;;6.33;5.23;;;9.90;99.90;;;;;;5013464;28;20252;-78
2020/12/17 02:57:43;;;;;;;7.20;6.20;;;10.00;99.90;;;;;;5012313;28;20186;-78
2020/12/17 03:00:11;;;;;;;6.50;5.60;;;10.00;99.90;;;;;;5013212;28;20252;-77
2020/12/17 03:02:36;;;;;;;6.00;5.40;;;10.00;99.90;;;;;;5013112;28;20169;-78
2020/12/17 03:05:04;;;;;;;9.03;6.33;;;10.00;99.90;;;;;;5013348;28;20183;-76
2020/12/17 03:07:29;;;;;;;10.05;6.15;;;10.00;99.90;;;;;;5013374;28;20183;-77
2020/12/17 03:09:55;;;;;;;10.00;5.70;;;10.00;99.90;;;;;;5013318;28;20190;-78
2020/12/17 03:12:21;;;;;;;6.03;5.37;;;9.90;99.90;;;;;;5012778;28;20555;-77
2020/12/17 03:14:46;;;;;;;7.83;5.80;;;10.10;99.90;;;;;;5013194;28;20207;-77
2020/12/17 03:17:12;;;;;;;8.10;6.13;;;10.00;99.90;;;;;;5013346;28;20170;-77
2020/12/17 03:19:37;;;;;;;6.00;5.37;;;10.00;99.90;;;;;;5013286;28;20179;-76
2020/12/17 03:22:03;;;;;;;8.57;6.57;;;10.00;99.90;;;;;;5014656;28;20197;-79
2020/12/17 03:24:29;;;;;;;6.97;5.90;;;10.10;99.90;;;;;;5017387;28;20189;-76
2020/12/17 03:26:54;;;;;;;10.07;6.40;;;10.00;99.90;;;;;;5015845;28;20953;-79
2020/12/17 03:29:20;;;;;;;7.87;6.07;;;10.00;99.90;;;;;;5015940;28;20182;-79
2020/12/17 03:31:45;;;;;;;6.53;5.93;;;10.10;99.90;;;;;;5016999;28;20202;-78
2020/12/17 03:34:11;;;;;;;8.10;5.90;;;10.10;99.90;;;;;;5016745;28;20560;-78
2020/12/17 03:36:36;;;;;;;10.40;5.73;;;10.10;99.90;;;;;;5016957;28;20185;-77
2020/12/17 03:39:03;;;;;;;7.80;5.87;;;10.00;99.90;;;;;;5015821;28;20182;-76
2020/12/17 03:41:29;;;;;;;5.40;4.90;;;10.00;99.90;;;;;;5016891;28;20190;-80
2020/12/17 03:43:54;;;;;;;6.47;4.73;;;10.00;99.90;;;;;;5016582;28;20188;-79
2020/12/17 03:46:20;;;;;;;5.27;4.77;;;10.10;99.90;;;;;;5016934;28;20197;-77
2020/12/17 03:48:46;;;;;;;7.07;5.77;;;10.10;99.90;;;;;;5015401;28;20202;-77
2020/12/17 03:51:11;;;;;;;8.93;5.53;;;10.20;99.90;;;;;;5016750;28;20229;-76
2020/12/17 03:53:37;;;;;;;6.30;4.47;;;10.10;99.90;;;;;;5016393;28;20232;-77
2020/12/17 03:56:02;;;;;;;4.50;4.10;;;10.20;99.90;;;;;;5016720;28;20210;-76
2020/12/17 03:58:28;;;;;;;5.70;5.10;;;10.20;99.90;;;;;;5015250;28;20257;-79
2020/12/17 04:00:53;;;;;;;5.37;4.87;;;10.30;99.90;;;;;;5016514;28;20198;-77
2020/12/17 04:03:19;;;;;;;6.00;5.03;;;10.20;99.90;;;;;;5016253;28;20175;-78
2020/12/17 04:05:45;;;;;;;8.27;5.80;;;10.20;99.90;;;;;;5016429;28;20687;-76
2020/12/17 04:08:10;;;;;;;8.13;5.63;;;10.20;99.90;;;;;;5015283;28;20256;-77
2020/12/17 04:10:36;;;;;;;6.90;5.73;;;10.20;99.90;;;;;;5016331;28;20690;-80
2020/12/17 04:13:01;;;;;;;6.80;5.70;;;10.10;99.90;;;;;;5015921;28;20175;-80
2020/12/17 04:15:27;;;;;;;6.63;5.30;;;10.10;99.90;;;;;;5016343;28;20183;-79
2020/12/17 04:17:53;;;;;;;8.23;5.00;;;10.10;99.90;;;;;;5014985;28;20194;-78
2020/12/17 04:20:18;;;;;;;6.83;5.90;;;10.10;99.90;;;;;;5016386;28;20179;-78
2020/12/17 04:22:44;;;;;;;11.27;5.43;;;10.20;99.90;;;;;;5015902;28;20181;-78
2020/12/17 04:25:09;;;;;;;7.20;5.80;;;10.20;99.90;;;;;;5016675;28;20210;-75
2020/12/17 04:27:35;;;;;;;9.73;5.37;;;10.20;99.90;;;;;;5016599;28;20237;-77
2020/12/17 04:30:00;;;;;;;5.60;4.83;;;10.20;99.90;;;;;;5016064;28;20185;-77
2020/12/17 04:32:26;;;;;;;5.27;4.60;;;10.20;99.90;;;;;;5015220;28;20217;-76
2020/12/17 04:34:52;;;;;;;10.93;4.90;;;10.10;99.90;;;;;;5016014;28;20210;-78
2020/12/17 04:37:17;;;;;;;7.13;5.70;;;10.10;99.90;;;;;;5015876;28;20639;-78
2020/12/17 04:39:43;;;;;;;6.40;5.70;;;10.10;99.90;;;;;;5016128;28;20698;-77
2020/12/17 04:42:09;;;;;;;10.57;6.30;;;10.10;99.90;;;;;;5015443;28;20285;-76
2020/12/17 04:44:35;;;;;;;6.13;5.07;;;10.10;99.90;;;;;;5014618;28;20190;-77
2020/12/17 04:47:03;;;;;;;5.85;5.28;;;10.10;99.90;;;;;;5015628;28;20201;-78
2020/12/17 04:49:52;;;;;;;8.85;6.00;;;10.00;99.90;;;;;;5015649;28;20674;-77
2020/12/17 04:52:21;;;;;;;11.25;5.85;;;10.00;99.90;;;;;;5015311;28;20214;-79
2020/12/17 04:54:46;;;;;;;8.00;5.70;;;10.10;99.90;;;;;;5014246;28;20210;-76
2020/12/17 04:57:16;;;;;;;7.87;6.00;;;10.10;99.90;;;;;;5015411;28;20174;-80
2020/12/17 04:59:45;;;;;;;6.93;6.10;;;10.20;99.90;;;;;;5015630;28;20268;-77
2020/12/17 05:02:12;;;;;;;5.65;5.10;;;10.10;99.90;;;;;;5015055;28;20622;-79
2020/12/17 05:04:43;;;;;;;5.65;5.00;;;10.00;99.90;;;;;;5015396;28;20225;-78
2020/12/17 05:07:17;;;;;;;8.10;5.85;;;9.90;99.90;;;;;;5015117;28;20174;-76
2020/12/17 05:09:44;;;;;;;6.63;5.05;;;9.90;99.90;;;;;;5015375;28;20197;-78
2020/12/17 05:12:11;;;;;;;8.20;5.38;;;10.00;99.90;;;;;;5014864;28;20197;-76
2020/12/17 05:14:37;;;;;;;6.03;4.95;;;9.90;99.90;;;;;;5015095;28;20203;-78
2020/12/17 05:17:04;;;;;;;7.80;4.72;;;9.90;99.90;;;;;;5015082;28;20253;-78
2020/12/17 05:19:30;;;;;;;7.13;5.38;;;9.90;99.90;;;;;;5014914;28;20183;-76
2020/12/17 05:21:57;;;;;;;6.13;5.57;;;9.90;99.90;;;;;;5014790;28;20203;-77
2020/12/17 05:24:24;;;;;;;6.82;5.53;;;10.00;99.90;;;;;;5015276;28;20418;-76
2020/12/17 05:26:51;;;;;;;9.40;6.05;;;10.00;99.90;;;;;;5013925;28;20655;-76
2020/12/17 05:29:17;;;;;;;6.15;4.75;;;10.00;99.90;;;;;;5014944;28;20186;-78
2020/12/17 05:31:44;;;;;;;9.23;5.30;;;10.00;99.90;;;;;;5013884;28;20305;-78
2020/12/17 05:34:10;;;;;;;6.47;5.38;;;10.00;99.90;;;;;;5014637;28;20238;-79
2020/12/17 05:36:36;;;;;;;6.70;5.85;;;10.00;99.90;;;;;;5014864;28;20175;-77
2020/12/17 05:39:11;;;;;;;8.87;6.07;;;10.00;99.90;;;;;;5014873;28;20240;-80
2020/12/17 05:41:37;;;;;;;7.22;6.50;;;10.00;99.90;;;;;;5013365;28;20197;-79
2020/12/17 05:44:14;;;;;;;6.35;5.28;;;10.10;99.90;;;;;;5013540;28;20260;-76
2020/12/17 05:46:42;;;;;;;5.47;4.78;;;10.10;99.90;;;;;;5014879;28;20179;-77
2020/12/17 05:49:11;;;;;;;8.60;5.38;;;10.00;99.90;;;;;;5013341;28;20671;-77
2020/12/17 05:51:38;;;;;;;9.18;6.18;;;10.00;99.90;;;;;;5014377;28;20233;-79
2020/12/17 05:54:09;;;;;;;9.43;5.88;;;10.10;99.90;;;;;;5014172;28;20203;-78
2020/12/17 05:56:36;;;;;;;5.75;5.10;;;10.10;99.90;;;;;;5014433;28;20182;-78
2020/12/17 05:59:04;;;;;;;6.03;5.18;;;10.10;99.90;;;;;;5014302;28;20524;-78
2020/12/17 06:01:30;;;;;;;5.65;5.15;;;10.00;99.90;;;;;;5014121;28;20194;-78
2020/12/17 06:03:56;;;;;;;8.88;6.68;;;10.00;99.90;;;;;;5012742;28;20221;-79
2020/12/17 06:06:23;;;;;;;6.93;5.57;;;10.10;99.90;;;;;;5014377;28;20175;-78
2020/12/17 06:08:53;;;;;;;6.20;4.90;;;10.10;99.90;;;;;;5014270;28;20179;-78
2020/12/17 06:11:23;;;;;;;9.55;4.88;;;10.10;99.90;;;;;;5014086;28;20191;-76
2020/12/17 06:13:55;;;;;;;9.05;5.28;;;10.00;99.90;;;;;;5013640;28;20217;-79
2020/12/17 06:16:24;;;;;;;8.07;6.13;;;10.00;99.90;;;;;;5014128;28;20175;-79
2020/12/17 06:18:58;;;;;;;7.70;5.50;;;10.00;99.90;;;;;;5014232;28;20178;-78
2020/12/17 06:21:25;;;;;;;6.45;5.38;;;10.00;99.90;;;;;;5012825;28;20257;-79
2020/12/17 06:23:55;;;;;;;6.72;5.55;;;10.00;99.90;;;;;;5013560;28;20521;-78
2020/12/17 06:26:22;;;;;;;7.20;6.40;;;10.00;99.90;;;;;;5014042;28;20182;-78
2020/12/17 06:28:49;;;;;;;8.00;5.95;;;10.00;99.90;;;;;;5013908;28;20197;-78
2020/12/17 06:31:17;;;;;;;8.80;5.80;;;9.90;99.90;;;;;;5013785;28;20278;-75
2020/12/17 06:33:44;;;;;;;6.35;5.70;;;10.00;99.90;;;;;;5013359;28;20607;-78
2020/12/17 06:36:17;;;;;;;11.40;5.55;;;9.90;99.90;;;;;;5013782;28;20213;-77
2020/12/17 06:38:46;;;;;;;10.75;5.95;;;9.80;99.90;;;;;;5014039;28;20163;-76
2020/12/17 06:41:17;;;;;;;6.40;5.53;;;9.70;99.90;;;;;;5009444;28;20290;-78
2020/12/17 06:43:42;;;;;;;8.50;5.72;;;9.70;99.90;;;;;;5011276;28;20305;-77
2020/12/17 06:46:29;;;;;;;7.80;6.87;;;9.70;99.90;;;;;;5012392;28;20699;-76
2020/12/17 06:48:55;;;;;;;8.75;6.65;;;9.70;99.90;;;;;;5013672;28;20211;-75
2020/12/17 06:51:36;;;;;;;7.33;5.30;;;9.70;99.90;;;;;;5013504;28;20350;-76
2020/12/17 06:54:32;;;;;;;5.97;5.00;;;9.80;99.90;;;;;;5011717;28;20472;-77
2020/12/17 06:57:08;;;;;;;7.60;5.65;;;9.70;99.90;;;;;;4997293;28;20186;-76
2020/12/17 06:59:35;;;;;;;10.27;7.03;;;9.70;99.90;;;;;;5013489;28;20653;-76
2020/12/17 07:02:01;;;;;;;7.82;5.03;;;9.70;99.90;;;;;;5013050;28;20237;-76
2020/12/17 07:04:35;;;;;;;10.43;5.93;;;9.70;99.90;;;;;;5013423;28;20207;-75
2020/12/17 07:07:11;;;;;;;6.80;5.75;;;9.70;99.90;;;;;;5013405;28;20181;-76
2020/12/17 07:09:37;;;;;;;6.18;5.57;;;9.60;99.90;;;;;;5013456;28;20514;-76
2020/12/17 07:12:03;;;;;;;7.97;6.38;;;9.50;99.90;;;;;;5012854;28;20721;-76
2020/12/17 07:14:28;;;;;;;7.00;5.90;;;9.50;99.90;;;;;;5013182;28;20292;-76
2020/12/17 07:16:59;;;;;;;6.50;5.07;;;9.50;99.90;;;;;;5013273;28;20167;-76
2020/12/17 07:19:26;;;;;;;6.55;5.15;;;9.50;99.90;;;;;;5013412;28;20263;-76
2020/12/17 07:22:14;;;;;;;6.78;5.15;;;9.50;99.90;;;;;;5013005;28;20532;-76
2020/12/17 07:24:43;;;;;;;5.32;4.00;;;9.50;99.90;;;;;;5013155;28;20183;-76
2020/12/17 07:27:22;;;;;;;4.38;3.80;;;9.50;99.90;;;;;;5013409;28;20183;-76
2020/12/17 07:29:50;;;;;;;5.13;3.85;;;9.50;99.90;;;;;;5013360;28;20182;-76
2020/12/17 07:32:27;;;;;;;4.45;3.45;;;9.60;99.90;;;;;;5012691;28;20198;-76
2020/12/17 07:34:55;;;;;;;6.60;3.15;;;9.50;99.90;;;;;;5013241;28;20742;-75
2020/12/17 07:37:49;;;;;;;5.55;2.75;;;9.60;99.90;;;;;;5013196;28;20329;-77
2020/12/17 07:40:26;;;;;;;4.47;2.80;;;9.70;99.90;;;;;;5013030;28;20656;-76
2020/12/17 07:43:06;;;;;;;6.55;3.05;;;9.60;99.90;;;;;;5012872;28;20170;-78
2020/12/17 07:45:39;;;;;;;6.15;2.13;;;9.60;99.90;;;;;;5013053;28;20174;-75
2020/12/17 07:48:36;;;;;;;3.15;2.40;;;9.50;99.90;;;;;;5011584;28;20651;-76
2020/12/17 07:51:13;;;;;;;1.77;1.63;;;9.50;99.90;;;;;;5013232;28;20218;-75
2020/12/17 07:53:42;;;;;;;3.45;2.20;;;9.40;99.90;;;;;;5005590;28;20663;-76
2020/12/17 07:56:08;;;;;;;2.85;1.83;;;9.50;99.90;;;;;;4993412;28;20199;-77
2020/12/17 07:58:35;;;;;;;5.25;2.13;;;9.40;99.90;;;;;;5002382;28;20194;-74
2020/12/17 08:01:02;;;;;;;2.70;1.30;;;9.40;99.90;;;;;;5012884;28;20203;-75
2020/12/17 08:03:28;;;;;;;3.92;2.00;;;9.40;99.90;;;;;;5012689;28;20186;-75
2020/12/17 08:06:07;;;;;;;5.70;1.63;;;9.40;99.90;;;;;;5012893;28;20167;-75
2020/12/17 08:08:33;;;;;;;2.72;1.63;;;9.40;99.90;;;;;;5015129;28;20406;-75
2020/12/17 08:11:00;;;;;;;1.63;1.50;;;9.30;99.90;;;;;;5015961;28;20202;-74
2020/12/17 08:13:26;;;;;;;2.60;1.67;;;9.30;99.90;;;;;;5015405;28;20771;-73
2020/12/17 08:15:56;;;;;;;3.00;1.70;;;9.30;99.90;;;;;;5016050;28;20634;-73
2020/12/17 08:18:25;;;;;;;2.22;1.92;;;9.30;99.90;;;;;;5016097;28;20635;-75
2020/12/17 08:21:10;;;;;;;4.88;1.38;;;9.30;99.90;;;;;;5015836;28;20206;-73
2020/12/17 08:23:41;;;;;;;7.20;3.50;;;9.30;99.90;;;;;;5016114;28;20171;-73
2020/12/17 08:26:10;;;;;;;1.85;1.75;;;9.30;99.90;;;;;;5016421;28;20175;-72
2020/12/17 08:28:37;;;;;;;1.70;1.50;;;9.40;99.90;;;;;;5031319;28;20236;-73
2020/12/17 08:31:11;;;;;;;1.70;1.38;;;9.30;99.90;;;;;;5015932;28;20203;-72
2020/12/17 08:33:52;;;;;;;3.05;1.30;;;9.40;99.90;;;;;;5015681;28;20218;-73
2020/12/17 08:36:21;;;;;;;1.73;1.60;;;9.40;99.90;;;;;;5016126;28;20174;-75
2020/12/17 08:39:18;;;;;;;2.30;1.35;;;9.30;99.90;;;;;;5014495;28;20178;-76
2020/12/17 08:41:52;;;;;;;5.55;1.65;;;9.30;99.90;;;;;;5015534;28;20219;-75
2020/12/17 08:44:22;;;;;;;5.53;2.45;;;9.30;99.90;;;;;;5016097;28;20650;-76
2020/12/17 08:46:55;;;;;;;1.75;1.20;;;9.10;99.90;;;;;;5015815;28;20186;-73
2020/12/17 08:49:23;;;;;;;1.65;1.20;;;9.10;99.90;;;;;;5046472;28;20193;-76
2020/12/17 08:51:49;;;;;;;2.80;1.58;;;9.00;99.90;;;;;;5015608;28;20281;-73
2020/12/17 08:54:31;;;;;;;3.63;1.20;;;9.10;99.90;;;;;;5014257;28;20685;-73
2020/12/17 08:57:01;;;;;;;1.75;1.35;;;9.10;99.90;;;;;;5014263;28;20670;-74
2020/12/17 08:59:27;;;;;;;1.35;1.15;;;9.10;99.90;;;;;;5015584;28;20175;-73
2020/12/17 09:01:52;;;;;;;2.67;1.20;;;9.10;99.90;;;;;;5015273;28;20707;-73
2020/12/17 09:04:18;;;;;;;2.20;1.10;;;9.00;99.90;;;;;;5015532;28;20266;-73
2020/12/17 09:06:51;;;;;;;2.60;1.20;;;9.20;99.90;;;;;;5015390;28;20203;-75
2020/12/17 09:09:24;;;;;;;4.40;1.20;;;9.30;99.90;;;;;;5015216;28;20237;-76
2020/12/17 09:11:51;;;;;;;3.78;1.67;;;9.30;99.90;;;;;;5007014;28;20223;-73
2020/12/17 09:14:20;;;;;;;1.60;1.30;;;9.30;99.90;;;;;;4995569;28;20211;-74
2020/12/17 09:16:48;;;;;;;2.70;1.35;;;9.30;99.90;;;;;;4994441;28;20199;-74
2020/12/17 09:19:14;;;;;;;1.70;1.35;;;9.30;99.90;;;;;;4994197;28;20582;-73
2020/12/17 09:21:56;;;;;;;3.27;1.23;;;9.40;99.90;;;;;;4995064;28;20253;-74
2020/12/17 09:24:36;;;;;;;2.22;1.42;;;9.40;99.90;;;;;;4995300;28;20179;-76
2020/12/17 09:27:28;;;;;;;2.30;1.45;;;9.50;99.90;;;;;;4995337;28;20190;-73
2020/12/17 09:30:05;;;;;;;2.72;1.25;;;9.40;99.90;;;;;;4990941;28;20215;-77
2020/12/17 09:32:32;;;;;;;3.05;1.25;;;9.30;99.90;;;;;;4995114;28;20175;-73
2020/12/17 09:35:16;;;;;;;1.40;1.10;;;9.40;99.90;;;;;;4995347;28;20218;-77
2020/12/17 09:38:00;;;;;;;1.17;0.88;;;9.50;99.90;;;;;;4995430;28;20274;-74
2020/12/17 09:40:26;;;;;;;2.50;1.08;;;9.50;99.90;;;;;;4995372;28;20604;-75
2020/12/17 09:43:05;;;;;;;0.93;0.77;;;9.70;99.90;;;;;;4994923;28;20167;-75
2020/12/17 09:45:39;;;;;;;1.88;0.88;;;9.80;99.90;;;;;;4995075;28;20201;-75
2020/12/17 09:48:23;;;;;;;4.55;0.90;;;9.90;99.90;;;;;;4993831;28;20226;-75
2020/12/17 09:51:06;;;;;;;3.00;1.00;;;10.10;99.90;;;;;;4995007;28;20218;-74
2020/12/17 09:53:34;;;;;;;1.90;0.90;;;10.30;99.90;;;;;;4994536;28;20917;-74
2020/12/17 09:56:00;;;;;;;1.40;0.93;;;10.40;99.90;;;;;;4995051;28;20176;-75
2020/12/17 09:58:26;;;;;;;1.77;1.00;;;10.40;99.90;;;;;;4995088;28;20187;-75
2020/12/17 10:00:52;;;;;;;1.47;0.70;;;10.60;99.90;;;;;;4994904;28;20430;-75
2020/12/17 10:03:18;;;;;;;1.63;1.20;;;10.60;99.90;;;;;;4994616;28;20230;-75
2020/12/17 10:05:43;;;;;;;1.20;0.97;;;10.70;99.90;;;;;;4994742;28;20672;-73
2020/12/17 10:08:09;;;;;;;2.90;1.20;;;10.70;99.90;;;;;;4994711;28;20410;-75
2020/12/17 10:10:35;;;;;;;1.53;0.80;;;10.80;99.90;;;;;;4994615;28;20265;-75
2020/12/17 10:13:01;;;;;;;2.40;1.30;;;10.70;99.90;;;;;;4994253;28;20255;-75
2020/12/17 10:15:28;;;;;;;1.95;0.80;;;10.60;99.90;;;;;;4994303;28;20215;-75
2020/12/17 10:17:55;;;;;;;1.95;1.00;;;10.50;99.90;;;;;;4994416;28;20183;-75
2020/12/17 10:20:21;;;;;;;1.15;0.90;;;10.50;99.90;;;;;;4993112;28;20632;-75
2020/12/17 10:22:47;;;;;;;2.00;0.75;;;10.50;99.90;;;;;;4992880;28;20194;-75
2020/12/17 10:25:13;;;;;;;2.37;1.00;;;10.60;99.90;;;;;;4994499;28;20175;-76
2020/12/17 10:27:39;;;;;;;1.83;1.05;;;10.80;99.90;;;;;;4994385;28;20184;-75
2020/12/17 10:30:06;;;;;;;4.20;0.83;;;11.20;99.90;;;;;;4993985;28;20184;-75
2020/12/17 10:32:33;;;;;;;1.23;0.90;;;11.40;99.90;;;;;;4994132;28;20250;-76
2020/12/17 10:34:59;;;;;;;1.60;1.10;;;12.00;99.90;;;;;;4994656;28;20548;-75
2020/12/17 10:37:26;;;;;;;1.60;1.50;;;11.70;99.90;;;;;;4994383;28;20876;-76
2020/12/17 10:39:51;;;;;;;2.87;1.20;;;11.90;99.90;;;;;;4994189;28;20410;-77
2020/12/17 10:42:17;;;;;;;1.60;1.10;;;12.10;99.90;;;;;;4993755;28;20441;-74
2020/12/17 10:44:42;;;;;;;0.90;0.80;;;11.80;99.90;;;;;;4994137;28;20237;-75
2020/12/17 10:47:08;;;;;;;4.33;1.10;;;11.60;99.90;;;;;;4994284;28;20207;-74
2020/12/17 10:49:34;;;;;;;2.80;0.90;;;11.40;99.90;;;;;;4994042;28;20213;-75
2020/12/17 10:52:00;;;;;;;1.90;0.80;;;11.30;99.90;;;;;;4993671;28;20587;-75
2020/12/17 10:54:25;;;;;;;1.20;0.80;;;11.40;99.90;;;;;;4993980;28;20239;-75
2020/12/17 10:56:51;;;;;;;0.97;0.80;;;11.40;99.90;;;;;;4994030;28;20203;-75
2020/12/17 10:59:17;;;;;;;2.13;0.83;;;11.60;99.90;;;;;;4993890;28;20549;-75
2020/12/17 11:01:42;;;;;;;1.73;1.03;;;11.60;99.90;;;;;;4993708;28;20190;-74
2020/12/17 11:04:08;;;;;;;2.07;0.97;;;11.60;99.90;;;;;;4993554;28;20175;-76
2020/12/17 11:06:34;;;;;;;5.32;1.27;;;12.00;99.90;;;;;;5007905;28;20190;-76
2020/12/17 11:09:00;;;;;;;1.20;0.97;;;12.00;99.90;;;;;;5012032;28;20182;-74
2020/12/17 11:11:25;;;;;;;1.53;0.90;;;11.80;99.90;;;;;;5013274;28;20476;-74
2020/12/17 11:13:53;;;;;;;7.10;2.70;;;11.40;99.90;;;;;;5012892;28;20199;-75
2020/12/17 11:16:19;;;;;;;2.38;1.50;;;11.20;99.90;;;;;;5013223;28;20174;-76
2020/12/17 11:18:44;;;;;;;1.40;1.00;;;11.50;99.90;;;;;;5011990;28;20546;-76
2020/12/17 11:21:10;;;;;;;7.10;1.53;;;12.10;99.90;;;;;;5013111;28;20438;-76
2020/12/17 11:23:36;;;;;;;7.40;1.07;;;12.30;99.90;;;;;;5012908;28;20183;-75
2020/12/17 11:26:05;;;;;;;1.40;1.03;;;12.40;99.90;;;;;;5005032;28;20189;-77
2020/12/17 11:28:31;;;;;;;3.05;1.10;;;12.50;99.90;;;;;;5009708;28;20423;-76
2020/12/17 11:30:57;;;;;;;2.50;1.23;;;12.50;99.90;;;;;;5011908;28;20630;-76
2020/12/17 11:33:25;;;;;;;2.93;1.10;;;12.50;99.90;;;;;;5010103;28;20426;-75
2020/12/17 11:35:50;;;;;;;2.90;1.30;;;12.10;99.90;;;;;;5011805;28;20241;-73
2020/12/17 11:38:16;;;;;;;2.10;1.33;;;11.80;99.90;;;;;;5011218;28;20633;-75
2020/12/17 11:40:42;;;;;;;3.80;1.30;;;12.10;99.90;;;;;;5010885;28;20715;-74
2020/12/17 11:43:08;;;;;;;3.83;1.15;;;12.10;99.90;;;;;;5012732;28;20422;-75
2020/12/17 11:45:34;;;;;;;1.87;1.10;;;12.30;99.90;;;;;;5015363;28;20186;-75
2020/12/17 11:48:00;;;;;;;1.67;1.03;;;12.50;99.90;;;;;;5014168;28;20436;-77
2020/12/17 11:50:26;;;;;;;1.90;1.00;;;12.40;99.90;;;;;;5015340;28;20445;-75
2020/12/17 11:52:52;;;;;;;1.73;1.00;;;12.30;99.90;;;;;;5014779;28;20189;-76
2020/12/17 11:55:18;;;;;;;5.63;1.20;;;12.00;99.90;;;;;;5014365;28;20702;-75
2020/12/17 11:57:47;;;;;;;2.73;1.33;;;11.90;99.90;;;;;;5014575;28;20194;-74
2020/12/17 12:00:13;;;;;;;3.15;1.80;;;11.70;99.90;;;;;;5014567;28;20421;-75
2020/12/17 12:02:38;;;;;;;3.57;1.00;;;12.00;99.90;;;;;;5013777;28;20655;-73
2020/12/17 12:05:05;;;;;;;2.03;1.07;;;11.90;99.90;;;;;;5014920;28;20187;-73
2020/12/17 12:07:31;;;;;;;3.60;1.50;;;11.80;99.90;;;;;;5015176;28;20635;-73
2020/12/17 12:09:56;;;;;;;1.97;1.10;;;11.60;99.90;;;;;;5013980;28;20294;-73
2020/12/17 12:12:22;;;;;;;3.37;1.23;;;11.80;99.90;;;;;;5014598;28;20450;-74
2020/12/17 12:14:48;;;;;;;2.03;1.40;;;11.90;99.90;;;;;;5013091;28;20212;-73
2020/12/17 12:17:13;;;;;;;2.40;1.37;;;12.40;99.90;;;;;;5014343;28;20194;-73
2020/12/17 12:19:39;;;;;;;3.27;1.27;;;12.70;99.90;;;;;;5014463;28;20642;-74
2020/12/17 12:22:05;;;;;;;2.10;1.13;;;13.00;99.90;;;;;;5014627;28;20611;-74
2020/12/17 12:24:31;;;;;;;3.70;1.50;;;13.30;99.90;;;;;;5013416;28;20422;-73
2020/12/17 12:27:00;;;;;;;7.10;1.50;;;13.60;99.90;;;;;;5011466;28;20808;-74
2020/12/17 12:29:26;;;;;;;6.10;1.30;;;13.50;99.90;;;;;;5011011;28;20198;-73
2020/12/17 12:31:52;;;;;;;1.80;1.07;;;13.20;99.90;;;;;;5013586;28;20452;-74
2020/12/17 12:34:18;;;;;;;2.63;1.30;;;13.00;99.90;;;;;;5013702;28;20826;-73
2020/12/17 12:36:51;;;;;;;4.17;1.10;;;12.90;99.90;;;;;;5014192;28;20425;-73
2020/12/17 12:39:17;;;;;;;2.47;1.20;;;12.80;99.90;;;;;;5013343;28;20539;-73
2020/12/17 12:41:46;;;;;;;2.37;1.30;;;12.90;99.90;;;;;;5014548;28;20521;-73
2020/12/17 12:44:12;;;;;;;3.37;1.60;;;12.70;99.90;;;;;;5013708;28;20622;-74
2020/12/17 12:46:38;;;;;;;3.40;1.63;;;12.90;99.90;;;;;;5013456;28;20425;-73
2020/12/17 12:49:04;;;;;;;2.83;1.40;;;13.00;99.90;;;;;;5013844;28;20449;-73
2020/12/17 12:51:29;;;;;;;1.63;1.40;;;13.10;99.90;;;;;;5014325;28;20213;-74
2020/12/17 12:53:55;;;;;;;2.33;1.00;;;13.00;99.90;;;;;;5012249;28;20207;-74